createdAt,value
2017-04-29T00:01:13.074Z,18.33
2017-04-29T00:02:12.791Z,18.24
2017-04-29T00:03:12.734Z,18.33
2017-04-29T00:04:12.663Z,18.24
2017-04-29T00:05:12.304Z,18.24
2017-04-29T00:06:12.539Z,18.33
2017-04-29T00:07:12.483Z,18.33
2017-04-29T00:08:12.415Z,18.24
2017-04-29T00:09:12.349Z,18.33
2017-04-29T00:10:12.290Z,18.24
2017-04-29T00:11:12.224Z,18.24
2017-04-29T00:12:12.192Z,18.24
2017-04-29T00:13:12.103Z,18.24
2017-04-29T00:14:11.749Z,18.33
2017-04-29T00:15:11.972Z,18.24
2017-04-29T00:16:11.913Z,18.33
2017-04-29T00:17:11.848Z,18.14
2017-04-29T00:18:11.788Z,18.33
2017-04-29T00:19:11.722Z,18.24
2017-04-29T00:20:11.660Z,18.24
2017-04-29T00:21:11.599Z,18.24
2017-04-29T00:22:11.533Z,18.24
2017-04-29T00:23:11.471Z,18.33
2017-04-29T00:24:11.408Z,18.24
2017-04-29T00:25:11.346Z,18.24
2017-04-29T00:26:11.282Z,18.24
2017-04-29T00:27:11.219Z,18.33
2017-04-29T00:28:11.157Z,18.24
2017-04-29T00:29:11.094Z,18.14
2017-04-29T00:30:11.031Z,18.33
2017-04-29T00:31:10.669Z,18.24
2017-04-29T00:32:11.209Z,18.33
2017-04-29T00:33:10.842Z,18.33
2017-04-29T00:34:10.781Z,18.14
2017-04-29T00:35:10.816Z,18.24
2017-04-29T00:36:10.355Z,18.24
2017-04-29T00:37:10.592Z,18.14
2017-04-29T00:38:10.536Z,18.14
2017-04-29T00:39:10.467Z,18.24
2017-04-29T00:40:10.404Z,18.24
2017-04-29T00:41:10.041Z,18.24
2017-04-29T00:42:10.277Z,18.24
2017-04-29T00:43:09.917Z,18.24
2017-04-29T00:44:09.853Z,18.24
2017-04-29T00:45:09.790Z,18.24
2017-04-29T00:46:10.034Z,18.04
2017-04-29T00:47:09.967Z,18.24
2017-04-29T00:48:09.901Z,18.14
2017-04-29T00:49:09.539Z,18.33
2017-04-29T00:50:09.777Z,18.24
2017-04-29T00:51:09.713Z,18.24
2017-04-29T00:52:09.659Z,18.24
2017-04-29T00:53:09.591Z,18.14
2017-04-29T00:54:09.231Z,18.14
2017-04-29T00:55:09.462Z,18.14
2017-04-29T00:56:09.413Z,18.14
2017-04-29T00:57:09.337Z,18.14
2017-04-29T00:58:09.284Z,18.04
2017-04-29T00:59:08.910Z,18.04
2017-04-29T01:00:09.158Z,18.33
2017-04-29T01:01:09.085Z,18.04
2017-04-29T01:02:09.024Z,18.14
2017-04-29T01:03:08.961Z,18.14
2017-04-29T01:04:08.897Z,18.04
2017-04-29T01:05:08.836Z,18.14
2017-04-29T01:06:08.771Z,18.14
2017-04-29T01:07:08.408Z,18.14
2017-04-29T01:08:08.652Z,18.14
2017-04-29T01:09:08.591Z,18.14
2017-04-29T01:10:08.522Z,18.04
2017-04-29T01:11:08.457Z,18.04
2017-04-29T01:12:08.398Z,18.04
2017-04-29T01:13:08.331Z,18.14
2017-04-29T01:14:08.279Z,18.24
2017-04-29T01:15:08.216Z,18.14
2017-04-29T01:16:08.145Z,18.24
2017-04-29T01:17:08.082Z,17.95
2017-04-29T01:18:08.017Z,18.04
2017-04-29T01:19:07.955Z,18.14
2017-04-29T01:20:07.907Z,18.24
2017-04-29T01:21:07.830Z,18.24
2017-04-29T01:22:07.765Z,18.04
2017-04-29T01:23:07.708Z,18.04
2017-04-29T01:24:07.643Z,18.04
2017-04-29T01:25:07.581Z,18.14
2017-04-29T01:26:07.517Z,18.04
2017-04-29T01:27:07.157Z,18.04
2017-04-29T01:28:07.391Z,18.04
2017-04-29T01:29:07.326Z,18.14
2017-04-29T01:30:07.266Z,18.04
2017-04-29T01:31:07.202Z,18.14
2017-04-29T01:32:07.139Z,18.04
2017-04-29T01:33:07.075Z,18.14
2017-04-29T01:34:07.014Z,18.04
2017-04-29T01:35:06.952Z,18.04
2017-04-29T01:36:06.902Z,18.33
2017-04-29T01:37:06.838Z,18.04
2017-04-29T01:38:06.773Z,18.04
2017-04-29T01:39:06.703Z,18.04
2017-04-29T01:40:06.637Z,18.04
2017-04-29T01:41:06.577Z,18.04
2017-04-29T01:42:06.213Z,18.04
2017-04-29T01:43:06.450Z,18.14
2017-04-29T01:44:06.387Z,18.24
2017-04-29T01:45:06.324Z,18.14
2017-04-29T01:46:06.264Z,18.14
2017-04-29T01:47:06.198Z,18.33
2017-04-29T01:48:06.135Z,18.14
2017-04-29T01:49:06.074Z,18.14
2017-04-29T01:50:06.012Z,18.14
2017-04-29T01:51:05.946Z,18.43
2017-04-29T01:52:05.894Z,18.14
2017-04-29T01:53:05.822Z,18.14
2017-04-29T01:54:05.461Z,18.14
2017-04-29T01:55:05.705Z,18.14
2017-04-29T01:56:05.634Z,18.14
2017-04-29T01:57:05.572Z,18.24
2017-04-29T01:58:05.507Z,18.62
2017-04-29T01:59:05.448Z,18.53
2017-04-29T02:00:05.381Z,18.43
2017-04-29T02:01:05.321Z,18.53
2017-04-29T02:02:05.258Z,18.33
2017-04-29T02:03:05.195Z,18.24
2017-04-29T02:04:04.838Z,18.14
2017-04-29T02:05:05.068Z,18.43
2017-04-29T02:06:05.006Z,18.24
2017-04-29T02:07:04.987Z,18.14
2017-04-29T02:08:04.879Z,18.62
2017-04-29T02:09:04.818Z,18.43
2017-04-29T02:10:04.755Z,18.33
2017-04-29T02:11:04.692Z,18.33
2017-04-29T02:12:04.630Z,18.43
2017-04-29T02:13:04.566Z,18.53
2017-04-29T02:14:04.504Z,18.43
2017-04-29T02:15:04.441Z,18.43
2017-04-29T02:16:04.377Z,18.53
2017-04-29T02:17:04.317Z,18.53
2017-04-29T02:18:04.256Z,18.43
2017-04-29T02:19:04.188Z,18.82
2017-04-29T02:20:04.276Z,18.82
2017-04-29T02:21:04.063Z,18.43
2017-04-29T02:22:04.000Z,18.53
2017-04-29T02:23:03.939Z,18.72
2017-04-29T02:24:03.876Z,18.43
2017-04-29T02:25:03.812Z,18.43
2017-04-29T02:26:03.750Z,18.72
2017-04-29T02:27:03.690Z,18.43
2017-04-29T02:28:03.324Z,18.43
2017-04-29T02:29:03.261Z,18.62
2017-04-29T02:30:03.500Z,18.72
2017-04-29T02:31:03.435Z,18.72
2017-04-29T02:32:03.372Z,18.53
2017-04-29T02:33:03.312Z,18.62
2017-04-29T02:34:03.247Z,18.43
2017-04-29T02:35:03.184Z,18.53
2017-04-29T02:36:03.122Z,18.72
2017-04-29T02:37:03.059Z,18.43
2017-04-29T02:38:02.999Z,18.62
2017-04-29T02:39:02.942Z,18.62
2017-04-29T02:40:02.883Z,18.53
2017-04-29T02:41:02.820Z,18.53
2017-04-29T02:42:02.742Z,18.62
2017-04-29T02:43:02.688Z,18.72
2017-04-29T02:44:02.324Z,18.62
2017-04-29T02:45:02.255Z,18.72
2017-04-29T02:46:02.492Z,18.62
2017-04-29T02:47:02.430Z,18.62
2017-04-29T02:48:02.381Z,18.72
2017-04-29T02:49:02.305Z,18.72
2017-04-29T02:50:02.248Z,18.62
2017-04-29T02:51:02.189Z,18.62
2017-04-29T02:52:01.827Z,18.62
2017-04-29T02:53:02.105Z,18.62
2017-04-29T02:54:02.000Z,18.72
2017-04-29T02:55:01.942Z,18.62
2017-04-29T02:56:01.867Z,18.62
2017-04-29T02:57:01.801Z,18.62
2017-04-29T02:58:01.743Z,18.62
2017-04-29T02:59:01.690Z,18.53
2017-04-29T03:00:01.622Z,18.62
2017-04-29T03:01:01.550Z,18.62
2017-04-29T03:02:01.493Z,18.62
2017-04-29T03:03:01.427Z,18.62
2017-04-29T03:04:01.362Z,18.62
2017-04-29T03:05:01.314Z,18.72
2017-04-29T03:06:01.236Z,18.62
2017-04-29T03:07:01.173Z,18.53
2017-04-29T03:08:01.131Z,18.72
2017-04-29T03:09:01.054Z,18.62
2017-04-29T03:10:00.987Z,18.72
2017-04-29T03:11:00.622Z,18.72
2017-04-29T03:12:00.861Z,18.62
2017-04-29T03:13:00.801Z,18.72
2017-04-29T03:14:00.736Z,18.62
2017-04-29T03:15:00.683Z,18.72
2017-04-29T03:16:00.609Z,18.62
2017-04-29T03:17:00.559Z,18.72
2017-04-29T03:18:00.495Z,18.72
2017-04-29T03:19:00.436Z,18.72
2017-04-29T03:20:00.358Z,18.62
2017-04-29T03:21:00.305Z,18.72
2017-04-29T03:22:00.251Z,18.72
2017-04-29T03:23:00.188Z,18.53
2017-04-29T03:24:00.127Z,18.53
2017-04-29T03:25:00.043Z,18.72
2017-04-29T03:25:59.989Z,18.72
2017-04-29T03:26:59.917Z,18.72
2017-04-29T03:27:59.861Z,18.72
2017-04-29T03:28:59.813Z,18.72
2017-04-29T03:29:59.732Z,18.82
2017-04-29T03:30:59.670Z,18.72
2017-04-29T03:31:59.607Z,18.82
2017-04-29T03:32:59.546Z,18.72
2017-04-29T03:33:59.484Z,18.72
2017-04-29T03:34:59.418Z,18.53
2017-04-29T03:35:59.352Z,18.72
2017-04-29T03:36:59.297Z,18.62
2017-04-29T03:37:59.231Z,18.72
2017-04-29T03:38:59.166Z,18.72
2017-04-29T03:39:59.103Z,18.62
2017-04-29T03:40:59.048Z,18.72
2017-04-29T03:41:58.978Z,18.82
2017-04-29T03:42:58.912Z,18.72
2017-04-29T03:43:58.852Z,18.72
2017-04-29T03:44:58.787Z,18.72
2017-04-29T03:45:58.727Z,18.82
2017-04-29T03:46:58.665Z,18.91
2017-04-29T03:47:58.602Z,18.91
2017-04-29T03:48:58.538Z,18.82
2017-04-29T03:49:58.476Z,18.62
2017-04-29T03:50:58.410Z,18.72
2017-04-29T03:51:58.348Z,18.82
2017-04-29T03:52:58.292Z,18.72
2017-04-29T03:53:58.224Z,18.82
2017-04-29T03:54:58.160Z,18.82
2017-04-29T03:55:58.095Z,18.91
2017-04-29T03:56:58.035Z,18.82
2017-04-29T03:57:57.970Z,18.62
2017-04-29T03:58:57.909Z,18.72
2017-04-29T03:59:57.851Z,18.82
2017-04-29T04:00:57.782Z,18.72
2017-04-29T04:01:57.718Z,18.82
2017-04-29T04:02:57.658Z,18.82
2017-04-29T04:03:57.595Z,18.82
2017-04-29T04:04:57.533Z,18.72
2017-04-29T04:05:57.468Z,18.82
2017-04-29T04:06:57.406Z,18.72
2017-04-29T04:07:57.345Z,18.82
2017-04-29T04:08:57.281Z,18.72
2017-04-29T04:09:57.220Z,18.72
2017-04-29T04:10:57.154Z,18.72
2017-04-29T04:11:57.092Z,18.72
2017-04-29T04:12:56.743Z,18.62
2017-04-29T04:13:56.967Z,19.01
2017-04-29T04:14:56.903Z,19.01
2017-04-29T04:15:56.841Z,18.62
2017-04-29T04:16:56.776Z,19.01
2017-04-29T04:17:56.715Z,18.82
2017-04-29T04:18:56.660Z,18.82
2017-04-29T04:19:56.593Z,18.82
2017-04-29T04:20:56.526Z,19.1
2017-04-29T04:21:56.463Z,18.72
2017-04-29T04:22:56.401Z,18.62
2017-04-29T04:23:56.337Z,18.72
2017-04-29T04:24:56.277Z,18.72
2017-04-29T04:25:56.211Z,18.82
2017-04-29T04:26:56.148Z,18.82
2017-04-29T04:27:56.095Z,18.72
2017-04-29T04:28:56.023Z,18.82
2017-04-29T04:29:55.961Z,18.62
2017-04-29T04:30:55.897Z,18.82
2017-04-29T04:31:55.837Z,18.72
2017-04-29T04:32:55.773Z,18.91
2017-04-29T04:33:55.716Z,18.72
2017-04-29T04:34:55.646Z,18.72
2017-04-29T04:35:55.584Z,19.1
2017-04-29T04:36:55.520Z,19.01
2017-04-29T04:37:55.460Z,19.01
2017-04-29T04:38:55.395Z,19.01
2017-04-29T04:39:55.336Z,18.91
2017-04-29T04:40:55.269Z,19.01
2017-04-29T04:41:55.204Z,18.72
2017-04-29T04:42:55.144Z,18.91
2017-04-29T04:43:55.082Z,18.91
2017-04-29T04:44:55.021Z,18.91
2017-04-29T04:45:54.955Z,18.91
2017-04-29T04:46:54.893Z,19.01
2017-04-29T04:47:54.832Z,19.1
2017-04-29T04:48:54.769Z,18.82
2017-04-29T04:49:54.707Z,19.01
2017-04-29T04:50:54.792Z,18.82
2017-04-29T04:51:54.580Z,19.01
2017-04-29T04:52:54.517Z,18.91
2017-04-29T04:53:54.452Z,19.1
2017-04-29T04:54:54.393Z,18.91
2017-04-29T04:55:54.474Z,19.01
2017-04-29T04:56:54.264Z,19.01
2017-04-29T04:57:54.210Z,19.2
2017-04-29T04:58:54.138Z,19.1
2017-04-29T04:59:54.079Z,18.91
2017-04-29T05:00:54.012Z,18.82
2017-04-29T05:01:53.950Z,18.82
2017-04-29T05:02:53.889Z,18.91
2017-04-29T05:03:53.823Z,19.1
2017-04-29T05:04:53.762Z,18.82
2017-04-29T05:05:53.699Z,18.91
2017-04-29T05:06:53.638Z,18.91
2017-04-29T05:07:53.574Z,19.01
2017-04-29T05:08:53.510Z,19.1
2017-04-29T05:09:53.448Z,19.01
2017-04-29T05:10:53.394Z,18.91
2017-04-29T05:11:53.321Z,19.01
2017-04-29T05:12:53.264Z,19.1
2017-04-29T05:13:53.198Z,19.01
2017-04-29T05:14:53.133Z,19.01
2017-04-29T05:15:53.070Z,19.01
2017-04-29T05:16:53.009Z,19.01
2017-04-29T05:17:52.946Z,19.1
2017-04-29T05:18:52.582Z,19.1
2017-04-29T05:19:52.817Z,19.1
2017-04-29T05:20:52.756Z,19.01
2017-04-29T05:21:52.698Z,19.1
2017-04-29T05:22:52.631Z,19.01
2017-04-29T05:23:52.570Z,19.1
2017-04-29T05:24:52.505Z,19.1
2017-04-29T05:25:52.442Z,18.91
2017-04-29T05:26:52.383Z,19.2
2017-04-29T05:27:52.319Z,19.1
2017-04-29T05:28:52.255Z,19.2
2017-04-29T05:29:52.200Z,19.2
2017-04-29T05:30:52.130Z,19.1
2017-04-29T05:31:52.065Z,19.2
2017-04-29T05:32:52.005Z,19.2
2017-04-29T05:33:51.941Z,19.1
2017-04-29T05:34:51.877Z,19.01
2017-04-29T05:35:51.813Z,19.1
2017-04-29T05:36:51.752Z,19.01
2017-04-29T05:37:51.731Z,19.1
2017-04-29T05:38:51.626Z,19.01
2017-04-29T05:39:51.561Z,19.1
2017-04-29T05:40:51.499Z,19.1
2017-04-29T05:41:51.438Z,19.1
2017-04-29T05:42:51.375Z,19.1
2017-04-29T05:43:51.313Z,19.2
2017-04-29T05:44:51.248Z,19.1
2017-04-29T05:45:51.197Z,19.1
2017-04-29T05:46:51.122Z,19.01
2017-04-29T05:47:51.065Z,19.01
2017-04-29T05:48:51.002Z,19.1
2017-04-29T05:49:50.936Z,19.01
2017-04-29T05:50:50.870Z,19.01
2017-04-29T05:51:50.808Z,19.1
2017-04-29T05:52:50.745Z,19.1
2017-04-29T05:53:50.683Z,19.2
2017-04-29T05:54:50.621Z,19.01
2017-04-29T05:55:50.557Z,19.01
2017-04-29T05:56:50.495Z,19.1
2017-04-29T05:57:50.434Z,19.1
2017-04-29T05:58:50.372Z,19.01
2017-04-29T05:59:50.307Z,18.91
2017-04-29T06:00:50.242Z,18.91
2017-04-29T06:01:49.879Z,19.01
2017-04-29T06:02:49.821Z,18.82
2017-04-29T06:03:50.056Z,19.1
2017-04-29T06:04:49.991Z,19.01
2017-04-29T06:05:49.929Z,19.01
2017-04-29T06:06:49.867Z,19.01
2017-04-29T06:07:49.805Z,18.82
2017-04-29T06:08:49.744Z,18.91
2017-04-29T06:09:49.677Z,18.91
2017-04-29T06:10:49.613Z,18.82
2017-04-29T06:11:49.557Z,19.01
2017-04-29T06:12:49.495Z,18.82
2017-04-29T06:13:49.427Z,18.91
2017-04-29T06:14:49.363Z,18.91
2017-04-29T06:15:49.301Z,18.91
2017-04-29T06:16:49.237Z,18.91
2017-04-29T06:17:49.181Z,18.91
2017-04-29T06:18:49.115Z,18.82
2017-04-29T06:19:49.049Z,18.91
2017-04-29T06:20:48.987Z,18.82
2017-04-29T06:21:48.925Z,18.82
2017-04-29T06:22:48.863Z,18.91
2017-04-29T06:23:48.801Z,18.91
2017-04-29T06:24:48.737Z,18.72
2017-04-29T06:25:48.672Z,18.91
2017-04-29T06:26:48.611Z,18.91
2017-04-29T06:27:48.550Z,18.82
2017-04-29T06:28:48.485Z,18.82
2017-04-29T06:29:48.424Z,18.72
2017-04-29T06:30:48.359Z,19.2
2017-04-29T06:31:48.295Z,18.82
2017-04-29T06:32:48.234Z,18.82
2017-04-29T06:33:48.170Z,18.82
2017-04-29T06:34:48.106Z,18.82
2017-04-29T06:35:48.044Z,18.72
2017-04-29T06:36:47.981Z,18.72
2017-04-29T06:37:47.920Z,18.72
2017-04-29T06:38:47.857Z,18.82
2017-04-29T06:39:47.793Z,18.91
2017-04-29T06:40:47.730Z,18.72
2017-04-29T06:41:47.671Z,18.91
2017-04-29T06:42:47.603Z,18.72
2017-04-29T06:43:47.542Z,18.72
2017-04-29T06:44:47.479Z,18.82
2017-04-29T06:45:47.416Z,19.1
2017-04-29T06:46:47.354Z,19.1
2017-04-29T06:47:47.292Z,18.72
2017-04-29T06:48:46.927Z,18.72
2017-04-29T06:49:47.165Z,19.01
2017-04-29T06:50:47.115Z,19.3
2017-04-29T06:51:47.040Z,19.2
2017-04-29T06:52:46.975Z,18.72
2017-04-29T06:53:46.914Z,19.1
2017-04-29T06:54:46.850Z,18.82
2017-04-29T06:55:46.789Z,19.01
2017-04-29T06:56:46.724Z,19.1
2017-04-29T06:57:46.661Z,19.1
2017-04-29T06:58:46.599Z,18.91
2017-04-29T06:59:46.536Z,19.1
2017-04-29T07:00:46.473Z,19.2
2017-04-29T07:01:46.411Z,18.82
2017-04-29T07:02:46.352Z,19.2
2017-04-29T07:03:46.285Z,19.3
2017-04-29T07:04:46.222Z,18.72
2017-04-29T07:05:46.159Z,18.82
2017-04-29T07:06:46.095Z,18.82
2017-04-29T07:07:46.035Z,19.2
2017-04-29T07:08:45.970Z,19.2
2017-04-29T07:09:45.913Z,19.01
2017-04-29T07:10:45.844Z,19.1
2017-04-29T07:11:45.781Z,19.01
2017-04-29T07:12:45.720Z,19.2
2017-04-29T07:13:45.661Z,19.01
2017-04-29T07:14:45.592Z,19.01
2017-04-29T07:15:45.530Z,19.1
2017-04-29T07:16:45.467Z,19.01
2017-04-29T07:17:45.106Z,19.2
2017-04-29T07:18:45.348Z,19.1
2017-04-29T07:19:45.280Z,19.2
2017-04-29T07:20:45.216Z,19.2
2017-04-29T07:21:45.155Z,19.1
2017-04-29T07:22:45.091Z,19.1
2017-04-29T07:23:45.031Z,19.1
2017-04-29T07:24:44.966Z,18.82
2017-04-29T07:25:44.908Z,19.01
2017-04-29T07:26:44.841Z,18.82
2017-04-29T07:27:44.826Z,19.1
2017-04-29T07:28:44.416Z,18.82
2017-04-29T07:29:44.651Z,19.2
2017-04-29T07:30:44.591Z,18.82
2017-04-29T07:31:44.525Z,19.01
2017-04-29T07:32:44.469Z,19.01
2017-04-29T07:33:44.403Z,19.1
2017-04-29T07:34:44.337Z,18.91
2017-04-29T07:35:44.274Z,19.2
2017-04-29T07:36:44.223Z,19.01
2017-04-29T07:37:44.151Z,18.91
2017-04-29T07:38:44.088Z,19.01
2017-04-29T07:39:44.022Z,19.2
2017-04-29T07:40:43.662Z,19.01
2017-04-29T07:41:43.897Z,19.01
2017-04-29T07:42:43.838Z,19.01
2017-04-29T07:43:43.774Z,19.1
2017-04-29T07:44:43.708Z,19.2
2017-04-29T07:45:43.649Z,19.2
2017-04-29T07:46:43.583Z,19.1
2017-04-29T07:47:43.527Z,19.4
2017-04-29T07:48:43.460Z,19.1
2017-04-29T07:49:43.403Z,19.01
2017-04-29T07:50:43.334Z,19.1
2017-04-29T07:51:43.269Z,19.1
2017-04-29T07:52:43.206Z,19.1
2017-04-29T07:53:43.146Z,19.2
2017-04-29T07:54:43.083Z,19.2
2017-04-29T07:55:42.719Z,19.1
2017-04-29T07:56:42.956Z,19.3
2017-04-29T07:57:42.895Z,19.3
2017-04-29T07:58:42.832Z,19.1
2017-04-29T07:59:42.768Z,19.3
2017-04-29T08:00:42.707Z,19.2
2017-04-29T08:01:42.644Z,19.3
2017-04-29T08:02:42.283Z,19.2
2017-04-29T08:03:42.518Z,19.1
2017-04-29T08:04:42.456Z,19.2
2017-04-29T08:05:42.395Z,19.49
2017-04-29T08:06:42.030Z,19.4
2017-04-29T08:07:42.267Z,19.2
2017-04-29T08:08:42.204Z,19.3
2017-04-29T08:09:42.141Z,19.1
2017-04-29T08:10:42.078Z,19.4
2017-04-29T08:11:42.050Z,19.3
2017-04-29T08:12:41.957Z,19.4
2017-04-29T08:13:41.891Z,19.2
2017-04-29T08:14:41.827Z,19.4
2017-04-29T08:15:41.765Z,19.2
2017-04-29T08:16:41.700Z,19.4
2017-04-29T08:17:41.342Z,19.3
2017-04-29T08:18:41.276Z,19.3
2017-04-29T08:19:41.215Z,19.3
2017-04-29T08:20:41.151Z,19.3
2017-04-29T08:21:41.388Z,19.2
2017-04-29T08:22:41.328Z,19.4
2017-04-29T08:23:41.264Z,19.4
2017-04-29T08:24:41.213Z,19.4
2017-04-29T08:25:41.137Z,19.4
2017-04-29T08:26:41.074Z,19.3
2017-04-29T08:27:41.011Z,19.4
2017-04-29T08:28:40.948Z,19.4
2017-04-29T08:29:40.885Z,19.4
2017-04-29T08:30:40.822Z,19.4
2017-04-29T08:31:40.759Z,19.4
2017-04-29T08:32:40.697Z,19.3
2017-04-29T08:33:40.635Z,19.4
2017-04-29T08:34:40.571Z,19.49
2017-04-29T08:35:40.509Z,19.3
2017-04-29T08:36:40.449Z,19.4
2017-04-29T08:37:40.083Z,19.3
2017-04-29T08:38:40.321Z,19.4
2017-04-29T08:39:40.266Z,19.3
2017-04-29T08:40:40.196Z,19.3
2017-04-29T08:41:40.133Z,19.4
2017-04-29T08:42:40.069Z,19.4
2017-04-29T08:43:40.005Z,19.3
2017-04-29T08:44:39.944Z,19.3
2017-04-29T08:45:39.882Z,19.2
2017-04-29T08:46:39.819Z,19.4
2017-04-29T08:47:39.756Z,19.3
2017-04-29T08:48:39.693Z,19.4
2017-04-29T08:49:39.632Z,19.4
2017-04-29T08:50:39.268Z,19.4
2017-04-29T08:51:39.505Z,19.4
2017-04-29T08:52:39.444Z,19.4
2017-04-29T08:53:39.379Z,19.4
2017-04-29T08:54:39.316Z,19.4
2017-04-29T08:55:39.253Z,19.4
2017-04-29T08:56:39.192Z,19.49
2017-04-29T08:57:39.129Z,19.3
2017-04-29T08:58:39.066Z,19.49
2017-04-29T08:59:38.703Z,19.4
2017-04-29T09:00:38.940Z,19.49
2017-04-29T09:01:38.880Z,19.4
2017-04-29T09:02:38.816Z,19.49
2017-04-29T09:03:38.753Z,19.49
2017-04-29T09:04:38.688Z,19.4
2017-04-29T09:05:38.626Z,19.4
2017-04-29T09:06:38.565Z,19.4
2017-04-29T09:07:38.202Z,19.4
2017-04-29T09:08:38.438Z,19.2
2017-04-29T09:09:38.375Z,19.4
2017-04-29T09:10:38.314Z,19.4
2017-04-29T09:11:38.256Z,19.3
2017-04-29T09:12:38.191Z,19.3
2017-04-29T09:13:38.125Z,19.4
2017-04-29T09:14:38.063Z,19.4
2017-04-29T09:15:37.999Z,19.3
2017-04-29T09:16:37.936Z,19.4
2017-04-29T09:17:37.875Z,19.3
2017-04-29T09:18:37.812Z,19.49
2017-04-29T09:19:37.752Z,19.3
2017-04-29T09:20:37.685Z,19.4
2017-04-29T09:21:37.623Z,19.3
2017-04-29T09:22:37.258Z,19.3
2017-04-29T09:23:37.500Z,19.4
2017-04-29T09:24:37.439Z,19.4
2017-04-29T09:25:37.378Z,19.49
2017-04-29T09:26:37.311Z,19.4
2017-04-29T09:27:37.247Z,19.3
2017-04-29T09:28:37.185Z,19.3
2017-04-29T09:29:37.120Z,19.3
2017-04-29T09:30:37.060Z,19.3
2017-04-29T09:31:36.998Z,19.49
2017-04-29T09:32:36.934Z,19.3
2017-04-29T09:33:36.872Z,19.68
2017-04-29T09:34:36.509Z,19.59
2017-04-29T09:35:36.746Z,19.59
2017-04-29T09:36:36.687Z,19.4
2017-04-29T09:37:36.622Z,19.4
2017-04-29T09:38:36.557Z,19.49
2017-04-29T09:39:36.495Z,19.4
2017-04-29T09:40:36.432Z,19.3
2017-04-29T09:41:36.370Z,19.4
2017-04-29T09:42:36.307Z,19.3
2017-04-29T09:43:36.246Z,19.49
2017-04-29T09:44:36.182Z,19.49
2017-04-29T09:45:36.119Z,19.3
2017-04-29T09:46:36.057Z,19.49
2017-04-29T09:47:35.995Z,19.3
2017-04-29T09:48:35.933Z,19.3
2017-04-29T09:49:35.867Z,19.59
2017-04-29T09:50:35.806Z,19.3
2017-04-29T09:51:35.748Z,19.3
2017-04-29T09:52:35.681Z,19.4
2017-04-29T09:53:35.616Z,19.4
2017-04-29T09:54:35.554Z,19.49
2017-04-29T09:55:35.492Z,19.4
2017-04-29T09:56:35.433Z,19.59
2017-04-29T09:57:35.373Z,19.3
2017-04-29T09:58:35.305Z,19.4
2017-04-29T09:59:35.276Z,19.4
2017-04-29T10:00:35.180Z,19.3
2017-04-29T10:01:35.151Z,19.59
2017-04-29T10:02:35.053Z,19.49
2017-04-29T10:03:34.991Z,19.3
2017-04-29T10:04:34.926Z,19.4
2017-04-29T10:05:34.865Z,19.4
2017-04-29T10:06:34.801Z,19.3
2017-04-29T10:07:34.740Z,19.49
2017-04-29T10:08:34.674Z,19.4
2017-04-29T10:09:34.613Z,19.59
2017-04-29T10:10:34.550Z,19.49
2017-04-29T10:11:34.487Z,19.3
2017-04-29T10:12:34.424Z,19.49
2017-04-29T10:13:34.405Z,19.3
2017-04-29T10:14:34.299Z,19.4
2017-04-29T10:15:34.236Z,19.59
2017-04-29T10:16:34.174Z,19.4
2017-04-29T10:17:34.109Z,19.3
2017-04-29T10:18:34.054Z,19.3
2017-04-29T10:19:33.987Z,19.59
2017-04-29T10:20:33.923Z,19.49
2017-04-29T10:21:33.861Z,19.3
2017-04-29T10:22:33.797Z,19.4
2017-04-29T10:23:33.735Z,19.49
2017-04-29T10:24:33.670Z,19.3
2017-04-29T10:25:33.609Z,19.3
2017-04-29T10:26:33.548Z,19.3
2017-04-29T10:27:33.482Z,19.49
2017-04-29T10:28:33.422Z,19.3
2017-04-29T10:29:33.357Z,19.4
2017-04-29T10:30:33.296Z,19.4
2017-04-29T10:31:33.233Z,19.49
2017-04-29T10:32:33.169Z,19.49
2017-04-29T10:33:33.117Z,19.4
2017-04-29T10:34:33.044Z,19.49
2017-04-29T10:35:32.987Z,19.3
2017-04-29T10:36:32.920Z,19.49
2017-04-29T10:37:32.858Z,19.49
2017-04-29T10:38:32.793Z,19.49
2017-04-29T10:39:32.733Z,19.4
2017-04-29T10:40:32.682Z,19.4
2017-04-29T10:41:32.606Z,19.3
2017-04-29T10:42:32.545Z,19.49
2017-04-29T10:43:32.479Z,19.49
2017-04-29T10:44:32.417Z,19.49
2017-04-29T10:45:32.357Z,19.4
2017-04-29T10:46:32.291Z,19.59
2017-04-29T10:47:32.229Z,19.49
2017-04-29T10:48:32.168Z,19.2
2017-04-29T10:49:31.804Z,19.59
2017-04-29T10:50:31.742Z,19.49
2017-04-29T10:51:31.677Z,19.49
2017-04-29T10:52:31.914Z,19.3
2017-04-29T10:53:31.852Z,19.59
2017-04-29T10:54:31.806Z,19.49
2017-04-29T10:55:31.749Z,19.4
2017-04-29T10:56:31.664Z,19.59
2017-04-29T10:57:31.605Z,19.59
2017-04-29T10:58:31.539Z,19.4
2017-04-29T10:59:31.478Z,19.59
2017-04-29T11:00:31.632Z,19.59
2017-04-29T11:01:31.353Z,19.4
2017-04-29T11:02:31.288Z,19.49
2017-04-29T11:03:31.226Z,19.49
2017-04-29T11:04:31.163Z,19.3
2017-04-29T11:05:31.102Z,19.49
2017-04-29T11:06:31.038Z,19.49
2017-04-29T11:07:30.977Z,19.4
2017-04-29T11:08:30.914Z,19.49
2017-04-29T11:09:30.850Z,19.4
2017-04-29T11:10:30.787Z,19.4
2017-04-29T11:11:30.727Z,19.49
2017-04-29T11:12:30.668Z,19.3
2017-04-29T11:13:30.600Z,19.4
2017-04-29T11:14:30.536Z,19.4
2017-04-29T11:15:30.473Z,19.4
2017-04-29T11:16:30.411Z,19.4
2017-04-29T11:17:30.347Z,19.4
2017-04-29T11:18:30.291Z,19.3
2017-04-29T11:19:30.224Z,19.4
2017-04-29T11:20:30.163Z,19.4
2017-04-29T11:21:30.097Z,19.3
2017-04-29T11:22:30.038Z,19.4
2017-04-29T11:23:29.972Z,19.4
2017-04-29T11:24:29.910Z,19.3
2017-04-29T11:25:29.846Z,19.3
2017-04-29T11:26:29.488Z,19.4
2017-04-29T11:27:29.723Z,19.4
2017-04-29T11:28:29.662Z,19.3
2017-04-29T11:29:29.599Z,19.3
2017-04-29T11:30:29.533Z,19.4
2017-04-29T11:31:29.471Z,19.4
2017-04-29T11:32:29.408Z,19.4
2017-04-29T11:33:29.350Z,19.4
2017-04-29T11:34:29.284Z,19.4
2017-04-29T11:35:29.220Z,19.31
2017-04-29T11:36:29.158Z,19.3
2017-04-29T11:37:29.096Z,19.3
2017-04-29T11:38:29.032Z,19.4
2017-04-29T11:39:28.974Z,19.3
2017-04-29T11:40:28.907Z,19.4
2017-04-29T11:41:28.845Z,19.4
2017-04-29T11:42:28.787Z,19.3
2017-04-29T11:43:28.722Z,19.4
2017-04-29T11:44:28.659Z,19.3
2017-04-29T11:45:28.596Z,19.49
2017-04-29T11:46:28.536Z,19.3
2017-04-29T11:47:28.476Z,19.31
2017-04-29T11:48:28.409Z,19.4
2017-04-29T11:49:28.346Z,19.4
2017-04-29T11:50:28.281Z,19.4
2017-04-29T11:51:28.218Z,19.31
2017-04-29T11:52:28.155Z,19.4
2017-04-29T11:53:28.097Z,19.4
2017-04-29T11:54:28.032Z,19.31
2017-04-29T11:55:27.969Z,19.4
2017-04-29T11:56:27.907Z,19.31
2017-04-29T11:57:27.844Z,19.49
2017-04-29T11:58:27.791Z,19.4
2017-04-29T11:59:27.721Z,19.2
2017-04-29T12:00:27.656Z,19.4
2017-04-29T12:01:27.292Z,19.31
2017-04-29T12:02:27.529Z,19.4
2017-04-29T12:03:27.468Z,19.3
2017-04-29T12:04:27.403Z,19.4
2017-04-29T12:05:27.341Z,19.4
2017-04-29T12:06:27.278Z,19.4
2017-04-29T12:07:27.229Z,19.4
2017-04-29T12:08:27.155Z,19.3
2017-04-29T12:09:27.108Z,19.3
2017-04-29T12:10:27.028Z,19.31
2017-04-29T12:11:26.968Z,19.31
2017-04-29T12:12:26.908Z,19.3
2017-04-29T12:13:26.842Z,19.31
2017-04-29T12:14:26.780Z,19.3
2017-04-29T12:15:26.716Z,19.5
2017-04-29T12:16:26.656Z,19.3
2017-04-29T12:17:26.592Z,19.3
2017-04-29T12:18:26.526Z,19.31
2017-04-29T12:19:26.465Z,19.3
2017-04-29T12:20:26.403Z,19.4
2017-04-29T12:21:26.342Z,19.31
2017-04-29T12:22:26.283Z,19.3
2017-04-29T12:23:26.222Z,19.3
2017-04-29T12:24:26.163Z,19.31
2017-04-29T12:25:26.093Z,19.4
2017-04-29T12:26:26.025Z,19.4
2017-04-29T12:27:25.968Z,19.31
2017-04-29T12:28:25.603Z,19.31
2017-04-29T12:29:25.539Z,19.3
2017-04-29T12:30:25.776Z,19.31
2017-04-29T12:31:25.416Z,19.49
2017-04-29T12:32:25.351Z,19.4
2017-04-29T12:33:25.588Z,19.3
2017-04-29T12:34:25.529Z,19.3
2017-04-29T12:35:25.463Z,19.4
2017-04-29T12:36:25.404Z,19.3
2017-04-29T12:37:25.338Z,19.31
2017-04-29T12:38:25.276Z,19.3
2017-04-29T12:39:25.259Z,19.3
2017-04-29T12:40:25.150Z,19.4
2017-04-29T12:41:25.087Z,19.31
2017-04-29T12:42:25.027Z,19.3
2017-04-29T12:43:24.962Z,19.4
2017-04-29T12:44:24.901Z,19.4
2017-04-29T12:45:24.837Z,19.3
2017-04-29T12:46:24.778Z,19.3
2017-04-29T12:47:24.711Z,19.4
2017-04-29T12:48:24.651Z,19.4
2017-04-29T12:49:24.587Z,19.4
2017-04-29T12:50:24.527Z,19.4
2017-04-29T12:51:24.461Z,19.4
2017-04-29T12:52:24.399Z,19.4
2017-04-29T12:53:24.339Z,19.3
2017-04-29T12:54:24.276Z,19.3
2017-04-29T12:55:24.211Z,19.59
2017-04-29T12:56:24.152Z,19.6
2017-04-29T12:57:24.088Z,19.3
2017-04-29T12:58:24.023Z,19.3
2017-04-29T12:59:23.961Z,19.3
2017-04-29T13:00:23.599Z,19.4
2017-04-29T13:01:23.834Z,19.3
2017-04-29T13:02:23.773Z,19.4